sensor_id;sensor_type;location;lat;lon;timestamp;P1;durP1;ratioP1;P2;durP2;ratioP2
41141;SDS011;63666;52.284;20.890;2022-12-29T00:01:20;6.80;;;3.50;;
41141;SDS011;63666;52.284;20.890;2022-12-29T00:03:51;7.10;;;3.40;;
41141;SDS011;63666;52.284;20.890;2022-12-29T00:06:21;6.80;;;3.70;;
41141;SDS011;63666;52.284;20.890;2022-12-29T00:08:51;5.70;;;3.50;;
41141;SDS011;63666;52.284;20.890;2022-12-29T00:11:23;7.00;;;3.60;;
41141;SDS011;63666;52.284;20.890;2022-12-29T00:13:55;7.00;;;3.40;;
41141;SDS011;63666;52.284;20.890;2022-12-29T00:16:54;5.80;;;3.50;;
41141;SDS011;63666;52.284;20.890;2022-12-29T00:19:24;6.00;;;3.50;;
41141;SDS011;63666;52.284;20.890;2022-12-29T00:22:16;6.40;;;3.60;;
41141;SDS011;63666;52.284;20.890;2022-12-29T00:25:05;6.70;;;4.00;;
41141;SDS011;63666;52.284;20.890;2022-12-29T00:27:55;6.60;;;3.40;;
41141;SDS011;63666;52.284;20.890;2022-12-29T00:30:44;7.00;;;3.60;;
41141;SDS011;63666;52.284;20.890;2022-12-29T00:33:37;7.70;;;3.40;;
41141;SDS011;63666;52.284;20.890;2022-12-29T00:36:32;6.50;;;3.70;;
41141;SDS011;63666;52.284;20.890;2022-12-29T00:39:08;6.30;;;3.70;;
41141;SDS011;63666;52.284;20.890;2022-12-29T00:42:04;6.80;;;3.90;;
41141;SDS011;63666;52.284;20.890;2022-12-29T00:44:56;5.90;;;3.30;;
41141;SDS011;63666;52.284;20.890;2022-12-29T00:47:26;6.90;;;3.50;;
41141;SDS011;63666;52.284;20.890;2022-12-29T00:50:04;6.00;;;3.30;;
41141;SDS011;63666;52.284;20.890;2022-12-29T00:52:37;5.90;;;3.60;;
41141;SDS011;63666;52.284;20.890;2022-12-29T00:55:10;7.40;;;3.50;;
41141;SDS011;63666;52.284;20.890;2022-12-29T00:57:41;5.80;;;3.30;;
41141;SDS011;63666;52.284;20.890;2022-12-29T01:00:13;5.70;;;3.70;;
41141;SDS011;63666;52.284;20.890;2022-12-29T01:05:16;6.70;;;3.40;;
41141;SDS011;63666;52.284;20.890;2022-12-29T01:07:47;6.40;;;3.60;;
41141;SDS011;63666;52.284;20.890;2022-12-29T01:10:17;7.50;;;3.40;;
41141;SDS011;63666;52.284;20.890;2022-12-29T01:12:47;5.60;;;3.30;;
41141;SDS011;63666;52.284;20.890;2022-12-29T01:15:19;6.40;;;3.40;;
41141;SDS011;63666;52.284;20.890;2022-12-29T01:17:52;5.60;;;3.10;;
41141;SDS011;63666;52.284;20.890;2022-12-29T01:20:27;6.20;;;3.40;;
41141;SDS011;63666;52.284;20.890;2022-12-29T01:22:57;5.90;;;3.70;;
41141;SDS011;63666;52.284;20.890;2022-12-29T01:25:30;5.80;;;3.10;;
41141;SDS011;63666;52.284;20.890;2022-12-29T01:28:05;5.50;;;3.20;;
41141;SDS011;63666;52.284;20.890;2022-12-29T01:30:36;6.20;;;3.20;;
41141;SDS011;63666;52.284;20.890;2022-12-29T01:33:11;5.80;;;2.90;;
41141;SDS011;63666;52.284;20.890;2022-12-29T01:35:41;5.50;;;3.30;;
41141;SDS011;63666;52.284;20.890;2022-12-29T01:38:12;6.90;;;3.50;;
41141;SDS011;63666;52.284;20.890;2022-12-29T01:40:48;5.50;;;3.10;;
41141;SDS011;63666;52.284;20.890;2022-12-29T01:43:18;5.20;;;3.00;;
41141;SDS011;63666;52.284;20.890;2022-12-29T01:45:51;5.40;;;3.40;;
41141;SDS011;63666;52.284;20.890;2022-12-29T01:48:26;5.20;;;2.80;;
41141;SDS011;63666;52.284;20.890;2022-12-29T01:50:59;5.60;;;3.10;;
41141;SDS011;63666;52.284;20.890;2022-12-29T01:53:31;6.40;;;3.10;;
41141;SDS011;63666;52.284;20.890;2022-12-29T01:56:10;6.00;;;3.00;;
41141;SDS011;63666;52.284;20.890;2022-12-29T01:58:45;5.30;;;3.20;;
41141;SDS011;63666;52.284;20.890;2022-12-29T02:01:22;6.10;;;3.00;;
41141;SDS011;63666;52.284;20.890;2022-12-29T02:03:55;5.50;;;3.40;;
41141;SDS011;63666;52.284;20.890;2022-12-29T02:06:31;5.70;;;3.40;;
41141;SDS011;63666;52.284;20.890;2022-12-29T02:09:04;6.10;;;3.50;;
41141;SDS011;63666;52.284;20.890;2022-12-29T02:11:35;6.10;;;3.30;;
41141;SDS011;63666;52.284;20.890;2022-12-29T02:14:10;5.80;;;3.00;;
41141;SDS011;63666;52.284;20.890;2022-12-29T02:16:54;5.90;;;3.60;;
41141;SDS011;63666;52.284;20.890;2022-12-29T02:19:58;4.90;;;3.20;;
41141;SDS011;63666;52.284;20.890;2022-12-29T02:23:06;5.50;;;2.80;;
41141;SDS011;63666;52.284;20.890;2022-12-29T02:26:14;5.70;;;2.80;;
41141;SDS011;63666;52.284;20.890;2022-12-29T02:29:15;5.40;;;2.70;;
41141;SDS011;63666;52.284;20.890;2022-12-29T02:32:13;5.60;;;3.10;;
41141;SDS011;63666;52.284;20.890;2022-12-29T02:34:49;4.90;;;2.70;;
41141;SDS011;63666;52.284;20.890;2022-12-29T02:37:33;5.80;;;3.00;;
41141;SDS011;63666;52.284;20.890;2022-12-29T02:40:17;5.50;;;3.20;;
41141;SDS011;63666;52.284;20.890;2022-12-29T02:45:37;5.50;;;2.90;;
41141;SDS011;63666;52.284;20.890;2022-12-29T02:48:17;5.70;;;2.90;;
41141;SDS011;63666;52.284;20.890;2022-12-29T02:50:57;5.10;;;2.80;;
41141;SDS011;63666;52.284;20.890;2022-12-29T02:53:32;5.40;;;2.80;;
41141;SDS011;63666;52.284;20.890;2022-12-29T02:56:22;6.10;;;3.30;;
41141;SDS011;63666;52.284;20.890;2022-12-29T02:58:54;5.20;;;3.00;;
41141;SDS011;63666;52.284;20.890;2022-12-29T03:01:36;5.50;;;2.80;;
41141;SDS011;63666;52.284;20.890;2022-12-29T03:04:39;5.70;;;2.70;;
41141;SDS011;63666;52.284;20.890;2022-12-29T03:07:26;5.30;;;3.10;;
41141;SDS011;63666;52.284;20.890;2022-12-29T03:10:07;5.40;;;2.70;;
41141;SDS011;63666;52.284;20.890;2022-12-29T03:12:51;5.30;;;2.50;;
41141;SDS011;63666;52.284;20.890;2022-12-29T03:15:46;5.30;;;3.00;;
41141;SDS011;63666;52.284;20.890;2022-12-29T03:18:41;4.80;;;2.50;;
41141;SDS011;63666;52.284;20.890;2022-12-29T03:21:27;5.20;;;2.70;;
41141;SDS011;63666;52.284;20.890;2022-12-29T03:24:18;4.90;;;2.90;;
41141;SDS011;63666;52.284;20.890;2022-12-29T03:26:54;5.80;;;2.70;;
41141;SDS011;63666;52.284;20.890;2022-12-29T03:29:35;4.60;;;2.50;;
41141;SDS011;63666;52.284;20.890;2022-12-29T03:32:16;4.80;;;2.30;;
41141;SDS011;63666;52.284;20.890;2022-12-29T03:34:47;5.40;;;3.00;;
41141;SDS011;63666;52.284;20.890;2022-12-29T03:37:29;5.50;;;2.80;;
41141;SDS011;63666;52.284;20.890;2022-12-29T03:40:10;4.90;;;2.40;;
41141;SDS011;63666;52.284;20.890;2022-12-29T03:42:44;4.70;;;2.80;;
41141;SDS011;63666;52.284;20.890;2022-12-29T03:45:26;4.50;;;2.30;;
41141;SDS011;63666;52.284;20.890;2022-12-29T03:48:01;6.20;;;3.00;;
41141;SDS011;63666;52.284;20.890;2022-12-29T03:50:38;5.10;;;2.60;;
41141;SDS011;63666;52.284;20.890;2022-12-29T03:53:18;5.10;;;2.40;;
41141;SDS011;63666;52.284;20.890;2022-12-29T03:55:55;4.40;;;2.50;;
41141;SDS011;63666;52.284;20.890;2022-12-29T03:58:35;5.10;;;2.60;;
41141;SDS011;63666;52.284;20.890;2022-12-29T04:01:15;4.70;;;2.60;;
41141;SDS011;63666;52.284;20.890;2022-12-29T04:03:53;4.70;;;2.30;;
41141;SDS011;63666;52.284;20.890;2022-12-29T04:09:10;4.90;;;2.60;;
41141;SDS011;63666;52.284;20.890;2022-12-29T04:11:40;4.70;;;2.40;;
41141;SDS011;63666;52.284;20.890;2022-12-29T04:14:18;4.70;;;2.40;;
41141;SDS011;63666;52.284;20.890;2022-12-29T04:16:56;5.00;;;2.90;;
41141;SDS011;63666;52.284;20.890;2022-12-29T04:19:33;4.40;;;2.50;;
41141;SDS011;63666;52.284;20.890;2022-12-29T04:22:14;4.60;;;2.60;;
41141;SDS011;63666;52.284;20.890;2022-12-29T04:24:50;4.60;;;2.40;;
41141;SDS011;63666;52.284;20.890;2022-12-29T04:27:23;5.00;;;2.50;;
41141;SDS011;63666;52.284;20.890;2022-12-29T04:30:00;5.10;;;2.70;;
41141;SDS011;63666;52.284;20.890;2022-12-29T04:32:31;5.20;;;2.20;;
41141;SDS011;63666;52.284;20.890;2022-12-29T04:35:08;5.30;;;2.50;;
41141;SDS011;63666;52.284;20.890;2022-12-29T04:37:38;5.70;;;2.40;;
41141;SDS011;63666;52.284;20.890;2022-12-29T04:40:13;4.90;;;2.40;;
41141;SDS011;63666;52.284;20.890;2022-12-29T04:42:48;4.60;;;2.40;;
41141;SDS011;63666;52.284;20.890;2022-12-29T04:45:18;4.60;;;2.30;;
41141;SDS011;63666;52.284;20.890;2022-12-29T04:47:51;4.70;;;2.80;;
41141;SDS011;63666;52.284;20.890;2022-12-29T04:50:25;4.70;;;2.40;;
41141;SDS011;63666;52.284;20.890;2022-12-29T04:52:59;5.60;;;2.50;;
41141;SDS011;63666;52.284;20.890;2022-12-29T04:55:34;4.50;;;2.20;;
41141;SDS011;63666;52.284;20.890;2022-12-29T04:58:11;4.50;;;2.50;;
41141;SDS011;63666;52.284;20.890;2022-12-29T05:00:51;4.50;;;2.00;;
41141;SDS011;63666;52.284;20.890;2022-12-29T05:03:29;4.50;;;2.40;;
41141;SDS011;63666;52.284;20.890;2022-12-29T05:06:06;5.00;;;2.20;;
41141;SDS011;63666;52.284;20.890;2022-12-29T05:08:36;4.90;;;2.30;;
41141;SDS011;63666;52.284;20.890;2022-12-29T05:13:44;4.00;;;2.20;;
41141;SDS011;63666;52.284;20.890;2022-12-29T05:16:17;4.60;;;2.60;;
41141;SDS011;63666;52.284;20.890;2022-12-29T05:18:49;4.20;;;2.00;;
41141;SDS011;63666;52.284;20.890;2022-12-29T05:21:23;4.10;;;2.00;;
41141;SDS011;63666;52.284;20.890;2022-12-29T05:23:54;6.10;;;2.60;;
41141;SDS011;63666;52.284;20.890;2022-12-29T05:26:26;5.00;;;2.50;;
41141;SDS011;63666;52.284;20.890;2022-12-29T05:28:58;5.00;;;2.80;;
41141;SDS011;63666;52.284;20.890;2022-12-29T05:31:31;4.50;;;2.20;;
41141;SDS011;63666;52.284;20.890;2022-12-29T05:34:02;4.50;;;2.50;;
41141;SDS011;63666;52.284;20.890;2022-12-29T05:36:35;4.10;;;2.10;;
41141;SDS011;63666;52.284;20.890;2022-12-29T05:39:06;4.30;;;2.30;;
41141;SDS011;63666;52.284;20.890;2022-12-29T05:41:36;4.00;;;2.00;;
41141;SDS011;63666;52.284;20.890;2022-12-29T05:44:09;4.60;;;2.30;;
41141;SDS011;63666;52.284;20.890;2022-12-29T05:46:42;5.00;;;2.70;;
41141;SDS011;63666;52.284;20.890;2022-12-29T05:49:12;5.10;;;2.50;;
41141;SDS011;63666;52.284;20.890;2022-12-29T05:51:44;4.40;;;2.20;;
41141;SDS011;63666;52.284;20.890;2022-12-29T05:54:16;4.60;;;2.30;;
41141;SDS011;63666;52.284;20.890;2022-12-29T05:56:53;7.00;;;2.60;;
41141;SDS011;63666;52.284;20.890;2022-12-29T05:59:23;5.30;;;2.40;;
41141;SDS011;63666;52.284;20.890;2022-12-29T06:01:53;5.00;;;2.50;;
41141;SDS011;63666;52.284;20.890;2022-12-29T06:04:26;4.70;;;2.50;;
41141;SDS011;63666;52.284;20.890;2022-12-29T06:06:56;4.20;;;2.40;;
41141;SDS011;63666;52.284;20.890;2022-12-29T06:09:29;5.00;;;2.30;;
41141;SDS011;63666;52.284;20.890;2022-12-29T06:12:05;4.80;;;2.70;;
41141;SDS011;63666;52.284;20.890;2022-12-29T06:14:37;4.40;;;2.40;;
41141;SDS011;63666;52.284;20.890;2022-12-29T06:17:10;4.50;;;2.30;;
41141;SDS011;63666;52.284;20.890;2022-12-29T06:19:43;4.40;;;2.30;;
41141;SDS011;63666;52.284;20.890;2022-12-29T06:22:18;5.60;;;2.90;;
41141;SDS011;63666;52.284;20.890;2022-12-29T06:24:51;4.00;;;2.20;;
41141;SDS011;63666;52.284;20.890;2022-12-29T06:27:32;4.30;;;2.10;;
41141;SDS011;63666;52.284;20.890;2022-12-29T06:30:07;5.90;;;2.60;;
41141;SDS011;63666;52.284;20.890;2022-12-29T06:32:44;4.50;;;2.50;;
41141;SDS011;63666;52.284;20.890;2022-12-29T06:35:15;4.80;;;2.40;;
41141;SDS011;63666;52.284;20.890;2022-12-29T06:37:47;5.10;;;2.40;;
41141;SDS011;63666;52.284;20.890;2022-12-29T06:40:22;5.10;;;2.40;;
41141;SDS011;63666;52.284;20.890;2022-12-29T06:42:59;4.50;;;2.30;;
41141;SDS011;63666;52.284;20.890;2022-12-29T06:45:31;4.60;;;2.40;;
41141;SDS011;63666;52.284;20.890;2022-12-29T06:48:04;5.00;;;2.40;;
41141;SDS011;63666;52.284;20.890;2022-12-29T06:50:37;4.60;;;2.20;;
41141;SDS011;63666;52.284;20.890;2022-12-29T06:53:12;4.20;;;2.50;;
41141;SDS011;63666;52.284;20.890;2022-12-29T06:55:47;4.20;;;2.20;;
41141;SDS011;63666;52.284;20.890;2022-12-29T06:58:18;4.80;;;2.70;;
41141;SDS011;63666;52.284;20.890;2022-12-29T07:00:57;4.40;;;2.40;;
41141;SDS011;63666;52.284;20.890;2022-12-29T07:03:32;5.50;;;2.70;;
41141;SDS011;63666;52.284;20.890;2022-12-29T07:06:06;4.90;;;2.50;;
41141;SDS011;63666;52.284;20.890;2022-12-29T07:08:39;5.60;;;2.60;;
41141;SDS011;63666;52.284;20.890;2022-12-29T07:11:13;5.00;;;2.90;;
41141;SDS011;63666;52.284;20.890;2022-12-29T07:13:49;5.30;;;2.40;;
41141;SDS011;63666;52.284;20.890;2022-12-29T07:16:22;4.70;;;2.90;;
41141;SDS011;63666;52.284;20.890;2022-12-29T07:18:57;4.20;;;2.30;;
41141;SDS011;63666;52.284;20.890;2022-12-29T07:24:14;4.70;;;2.50;;
41141;SDS011;63666;52.284;20.890;2022-12-29T07:26:52;4.80;;;2.50;;
41141;SDS011;63666;52.284;20.890;2022-12-29T07:29:30;4.80;;;2.60;;
41141;SDS011;63666;52.284;20.890;2022-12-29T07:32:06;5.30;;;2.70;;
41141;SDS011;63666;52.284;20.890;2022-12-29T07:34:41;5.00;;;2.70;;
41141;SDS011;63666;52.284;20.890;2022-12-29T07:37:15;4.60;;;2.50;;
41141;SDS011;63666;52.284;20.890;2022-12-29T07:39:50;4.70;;;2.40;;
41141;SDS011;63666;52.284;20.890;2022-12-29T07:42:20;5.00;;;2.70;;
41141;SDS011;63666;52.284;20.890;2022-12-29T07:44:56;4.80;;;2.60;;
41141;SDS011;63666;52.284;20.890;2022-12-29T07:47:31;4.20;;;2.40;;
41141;SDS011;63666;52.284;20.890;2022-12-29T07:50:02;5.40;;;2.80;;
41141;SDS011;63666;52.284;20.890;2022-12-29T07:52:35;4.80;;;2.70;;
41141;SDS011;63666;52.284;20.890;2022-12-29T07:55:13;4.70;;;2.60;;
41141;SDS011;63666;52.284;20.890;2022-12-29T07:57:44;4.70;;;2.60;;
41141;SDS011;63666;52.284;20.890;2022-12-29T08:00:20;4.50;;;2.40;;
41141;SDS011;63666;52.284;20.890;2022-12-29T08:02:59;5.40;;;2.70;;
41141;SDS011;63666;52.284;20.890;2022-12-29T08:05:37;4.60;;;2.50;;
41141;SDS011;63666;52.284;20.890;2022-12-29T08:08:10;4.80;;;2.80;;
41141;SDS011;63666;52.284;20.890;2022-12-29T08:10:42;4.60;;;2.70;;
41141;SDS011;63666;52.284;20.890;2022-12-29T08:13:15;4.70;;;2.60;;
41141;SDS011;63666;52.284;20.890;2022-12-29T08:15:50;5.00;;;2.60;;
41141;SDS011;63666;52.284;20.890;2022-12-29T08:18:25;5.70;;;2.90;;
41141;SDS011;63666;52.284;20.890;2022-12-29T08:21:03;5.20;;;3.10;;
41141;SDS011;63666;52.284;20.890;2022-12-29T08:23:35;5.00;;;3.10;;
41141;SDS011;63666;52.284;20.890;2022-12-29T08:26:09;5.20;;;3.50;;
41141;SDS011;63666;52.284;20.890;2022-12-29T08:28:40;6.00;;;3.40;;
41141;SDS011;63666;52.284;20.890;2022-12-29T08:31:12;5.50;;;3.10;;
41141;SDS011;63666;52.284;20.890;2022-12-29T08:33:45;5.30;;;2.90;;
41141;SDS011;63666;52.284;20.890;2022-12-29T08:36:15;5.10;;;3.10;;
41141;SDS011;63666;52.284;20.890;2022-12-29T08:38:49;5.20;;;3.30;;
41141;SDS011;63666;52.284;20.890;2022-12-29T08:41:21;6.40;;;3.50;;
41141;SDS011;63666;52.284;20.890;2022-12-29T08:43:53;4.80;;;2.80;;
41141;SDS011;63666;52.284;20.890;2022-12-29T08:46:26;4.90;;;2.90;;
41141;SDS011;63666;52.284;20.890;2022-12-29T08:49:01;5.60;;;3.00;;
41141;SDS011;63666;52.284;20.890;2022-12-29T08:51:31;5.60;;;3.10;;
41141;SDS011;63666;52.284;20.890;2022-12-29T08:54:09;5.50;;;2.80;;
41141;SDS011;63666;52.284;20.890;2022-12-29T08:56:43;5.60;;;3.10;;
41141;SDS011;63666;52.284;20.890;2022-12-29T08:59:18;6.40;;;3.00;;
41141;SDS011;63666;52.284;20.890;2022-12-29T09:01:56;4.50;;;2.90;;
41141;SDS011;63666;52.284;20.890;2022-12-29T09:04:30;4.80;;;2.70;;
41141;SDS011;63666;52.284;20.890;2022-12-29T09:07:08;5.10;;;3.10;;
41141;SDS011;63666;52.284;20.890;2022-12-29T09:09:43;4.90;;;2.80;;
41141;SDS011;63666;52.284;20.890;2022-12-29T09:12:16;5.90;;;2.70;;
41141;SDS011;63666;52.284;20.890;2022-12-29T09:14:48;5.30;;;2.90;;
41141;SDS011;63666;52.284;20.890;2022-12-29T09:17:18;5.30;;;3.10;;
41141;SDS011;63666;52.284;20.890;2022-12-29T09:20:08;5.00;;;3.00;;
41141;SDS011;63666;52.284;20.890;2022-12-29T09:22:42;5.10;;;2.90;;
41141;SDS011;63666;52.284;20.890;2022-12-29T09:25:17;4.70;;;2.30;;
41141;SDS011;63666;52.284;20.890;2022-12-29T09:27:48;6.40;;;3.00;;
41141;SDS011;63666;52.284;20.890;2022-12-29T09:30:19;5.00;;;2.70;;
41141;SDS011;63666;52.284;20.890;2022-12-29T09:32:51;5.00;;;2.90;;
41141;SDS011;63666;52.284;20.890;2022-12-29T09:35:28;5.70;;;2.60;;
41141;SDS011;63666;52.284;20.890;2022-12-29T09:38:03;5.50;;;3.00;;
41141;SDS011;63666;52.284;20.890;2022-12-29T09:40:38;5.20;;;2.80;;
41141;SDS011;63666;52.284;20.890;2022-12-29T09:43:35;5.50;;;2.70;;
41141;SDS011;63666;52.284;20.890;2022-12-29T09:46:24;5.10;;;2.60;;
41141;SDS011;63666;52.284;20.890;2022-12-29T09:49:08;6.40;;;3.10;;
41141;SDS011;63666;52.284;20.890;2022-12-29T09:51:48;7.20;;;2.90;;
41141;SDS011;63666;52.284;20.890;2022-12-29T09:54:34;5.20;;;2.60;;
41141;SDS011;63666;52.284;20.890;2022-12-29T09:57:15;5.20;;;2.50;;
41141;SDS011;63666;52.284;20.890;2022-12-29T09:59:54;4.70;;;2.60;;
41141;SDS011;63666;52.284;20.890;2022-12-29T10:02:36;4.60;;;2.60;;
41141;SDS011;63666;52.284;20.890;2022-12-29T10:05:22;5.10;;;2.60;;
41141;SDS011;63666;52.284;20.890;2022-12-29T10:08:08;5.50;;;2.70;;
41141;SDS011;63666;52.284;20.890;2022-12-29T10:10:50;5.50;;;2.50;;
41141;SDS011;63666;52.284;20.890;2022-12-29T10:13:39;5.40;;;3.00;;
41141;SDS011;63666;52.284;20.890;2022-12-29T10:16:23;5.00;;;2.50;;
41141;SDS011;63666;52.284;20.890;2022-12-29T10:19:22;4.70;;;2.40;;
41141;SDS011;63666;52.284;20.890;2022-12-29T10:22:11;4.80;;;2.60;;
41141;SDS011;63666;52.284;20.890;2022-12-29T10:24:47;5.10;;;2.80;;
41141;SDS011;63666;52.284;20.890;2022-12-29T10:27:21;5.00;;;2.60;;
41141;SDS011;63666;52.284;20.890;2022-12-29T10:29:55;5.80;;;2.70;;
41141;SDS011;63666;52.284;20.890;2022-12-29T10:32:31;4.30;;;2.40;;
41141;SDS011;63666;52.284;20.890;2022-12-29T10:35:12;6.00;;;3.10;;
41141;SDS011;63666;52.284;20.890;2022-12-29T10:37:50;4.60;;;2.50;;
41141;SDS011;63666;52.284;20.890;2022-12-29T10:40:28;5.80;;;2.60;;
41141;SDS011;63666;52.284;20.890;2022-12-29T10:43:12;4.70;;;2.80;;
41141;SDS011;63666;52.284;20.890;2022-12-29T10:45:49;5.20;;;3.00;;
41141;SDS011;63666;52.284;20.890;2022-12-29T10:48:22;5.10;;;2.60;;
41141;SDS011;63666;52.284;20.890;2022-12-29T10:51:02;4.90;;;2.60;;
41141;SDS011;63666;52.284;20.890;2022-12-29T10:53:40;5.00;;;2.40;;
41141;SDS011;63666;52.284;20.890;2022-12-29T10:56:25;4.60;;;2.70;;
41141;SDS011;63666;52.284;20.890;2022-12-29T10:59:03;4.60;;;2.50;;
41141;SDS011;63666;52.284;20.890;2022-12-29T11:01:45;5.60;;;2.90;;
41141;SDS011;63666;52.284;20.890;2022-12-29T11:04:33;4.90;;;2.70;;
41141;SDS011;63666;52.284;20.890;2022-12-29T11:07:10;5.40;;;2.90;;
41141;SDS011;63666;52.284;20.890;2022-12-29T11:09:45;4.90;;;2.40;;
41141;SDS011;63666;52.284;20.890;2022-12-29T11:12:24;5.00;;;2.70;;
41141;SDS011;63666;52.284;20.890;2022-12-29T11:15:13;5.30;;;2.90;;
41141;SDS011;63666;52.284;20.890;2022-12-29T11:17:46;4.90;;;2.70;;
41141;SDS011;63666;52.284;20.890;2022-12-29T11:20:30;5.20;;;2.80;;
41141;SDS011;63666;52.284;20.890;2022-12-29T11:23:05;5.00;;;2.80;;
41141;SDS011;63666;52.284;20.890;2022-12-29T11:26:07;5.30;;;2.80;;
41141;SDS011;63666;52.284;20.890;2022-12-29T11:29:01;6.10;;;2.70;;
41141;SDS011;63666;52.284;20.890;2022-12-29T11:31:42;4.40;;;2.40;;
41141;SDS011;63666;52.284;20.890;2022-12-29T11:34:19;5.70;;;2.90;;
41141;SDS011;63666;52.284;20.890;2022-12-29T11:36:54;4.50;;;2.60;;
41141;SDS011;63666;52.284;20.890;2022-12-29T11:39:36;5.40;;;2.70;;
41141;SDS011;63666;52.284;20.890;2022-12-29T11:42:14;6.10;;;3.20;;
41141;SDS011;63666;52.284;20.890;2022-12-29T11:44:47;5.70;;;3.20;;
41141;SDS011;63666;52.284;20.890;2022-12-29T11:47:27;5.70;;;2.80;;
41141;SDS011;63666;52.284;20.890;2022-12-29T11:50:00;5.30;;;3.30;;
41141;SDS011;63666;52.284;20.890;2022-12-29T11:52:34;4.90;;;2.80;;
41141;SDS011;63666;52.284;20.890;2022-12-29T11:55:20;6.20;;;3.10;;
41141;SDS011;63666;52.284;20.890;2022-12-29T11:57:54;5.30;;;3.20;;
41141;SDS011;63666;52.284;20.890;2022-12-29T12:00:28;6.60;;;3.20;;
41141;SDS011;63666;52.284;20.890;2022-12-29T12:03:03;6.50;;;4.00;;
41141;SDS011;63666;52.284;20.890;2022-12-29T12:05:43;5.80;;;3.30;;
41141;SDS011;63666;52.284;20.890;2022-12-29T12:08:31;5.60;;;3.20;;
41141;SDS011;63666;52.284;20.890;2022-12-29T12:11:12;6.50;;;3.30;;
41141;SDS011;63666;52.284;20.890;2022-12-29T12:13:53;5.20;;;3.30;;
41141;SDS011;63666;52.284;20.890;2022-12-29T12:16:35;4.80;;;2.90;;
41141;SDS011;63666;52.284;20.890;2022-12-29T12:19:15;4.90;;;2.80;;
41141;SDS011;63666;52.284;20.890;2022-12-29T12:21:52;6.10;;;3.40;;
41141;SDS011;63666;52.284;20.890;2022-12-29T12:24:37;5.10;;;3.30;;
41141;SDS011;63666;52.284;20.890;2022-12-29T12:27:13;6.00;;;3.10;;
41141;SDS011;63666;52.284;20.890;2022-12-29T12:29:52;6.30;;;3.30;;
41141;SDS011;63666;52.284;20.890;2022-12-29T12:32:29;5.30;;;3.10;;
41141;SDS011;63666;52.284;20.890;2022-12-29T12:35:16;5.30;;;3.00;;
41141;SDS011;63666;52.284;20.890;2022-12-29T12:38:10;6.20;;;3.30;;
41141;SDS011;63666;52.284;20.890;2022-12-29T12:40:59;5.20;;;2.90;;
41141;SDS011;63666;52.284;20.890;2022-12-29T12:43:46;6.20;;;3.00;;
41141;SDS011;63666;52.284;20.890;2022-12-29T12:46:48;6.40;;;3.10;;
41141;SDS011;63666;52.284;20.890;2022-12-29T12:52:54;7.80;;;5.60;;
41141;SDS011;63666;52.284;20.890;2022-12-29T12:55:47;6.60;;;4.80;;
41141;SDS011;63666;52.284;20.890;2022-12-29T12:58:30;7.40;;;4.40;;
41141;SDS011;63666;52.284;20.890;2022-12-29T13:01:17;6.70;;;4.30;;
41141;SDS011;63666;52.284;20.890;2022-12-29T13:04:06;5.70;;;4.00;;
41141;SDS011;63666;52.284;20.890;2022-12-29T13:06:47;6.10;;;4.40;;
41141;SDS011;63666;52.284;20.890;2022-12-29T13:09:32;7.10;;;4.20;;
41141;SDS011;63666;52.284;20.890;2022-12-29T13:12:21;5.90;;;4.10;;
41141;SDS011;63666;52.284;20.890;2022-12-29T13:15:12;8.20;;;4.60;;
41141;SDS011;63666;52.284;20.890;2022-12-29T13:17:51;6.40;;;4.40;;
41141;SDS011;63666;52.284;20.890;2022-12-29T13:20:31;8.10;;;4.50;;
41141;SDS011;63666;52.284;20.890;2022-12-29T13:23:09;6.60;;;4.40;;
41141;SDS011;63666;52.284;20.890;2022-12-29T13:25:50;6.30;;;4.50;;
41141;SDS011;63666;52.284;20.890;2022-12-29T13:28:25;6.30;;;4.20;;
41141;SDS011;63666;52.284;20.890;2022-12-29T13:31:04;6.80;;;4.50;;
41141;SDS011;63666;52.284;20.890;2022-12-29T13:33:44;7.30;;;4.40;;
41141;SDS011;63666;52.284;20.890;2022-12-29T13:36:24;6.80;;;4.70;;
41141;SDS011;63666;52.284;20.890;2022-12-29T13:39:02;6.10;;;4.30;;
41141;SDS011;63666;52.284;20.890;2022-12-29T13:41:37;6.60;;;3.90;;
41141;SDS011;63666;52.284;20.890;2022-12-29T13:44:18;6.50;;;4.20;;
41141;SDS011;63666;52.284;20.890;2022-12-29T13:46:52;5.50;;;4.10;;
41141;SDS011;63666;52.284;20.890;2022-12-29T13:49:23;7.00;;;4.00;;
41141;SDS011;63666;52.284;20.890;2022-12-29T13:51:56;6.20;;;3.90;;
41141;SDS011;63666;52.284;20.890;2022-12-29T13:54:34;5.90;;;4.00;;
41141;SDS011;63666;52.284;20.890;2022-12-29T13:57:12;5.80;;;4.00;;
41141;SDS011;63666;52.284;20.890;2022-12-29T13:59:59;5.80;;;3.70;;
41141;SDS011;63666;52.284;20.890;2022-12-29T14:02:39;7.10;;;3.60;;
41141;SDS011;63666;52.284;20.890;2022-12-29T14:05:30;6.60;;;4.00;;
41141;SDS011;63666;52.284;20.890;2022-12-29T14:08:02;5.60;;;3.70;;
41141;SDS011;63666;52.284;20.890;2022-12-29T14:10:34;5.90;;;4.20;;
41141;SDS011;63666;52.284;20.890;2022-12-29T14:13:10;6.00;;;4.10;;
41141;SDS011;63666;52.284;20.890;2022-12-29T14:15:43;6.10;;;3.70;;
41141;SDS011;63666;52.284;20.890;2022-12-29T14:18:17;5.50;;;3.30;;
41141;SDS011;63666;52.284;20.890;2022-12-29T14:20:54;6.20;;;3.60;;
41141;SDS011;63666;52.284;20.890;2022-12-29T14:23:36;6.70;;;3.90;;
41141;SDS011;63666;52.284;20.890;2022-12-29T14:26:14;5.70;;;3.90;;
41141;SDS011;63666;52.284;20.890;2022-12-29T14:28:47;5.50;;;3.70;;
41141;SDS011;63666;52.284;20.890;2022-12-29T14:31:36;6.70;;;3.80;;
41141;SDS011;63666;52.284;20.890;2022-12-29T14:34:34;7.10;;;3.70;;
41141;SDS011;63666;52.284;20.890;2022-12-29T14:37:23;6.20;;;3.50;;
41141;SDS011;63666;52.284;20.890;2022-12-29T14:40:06;5.20;;;3.20;;
41141;SDS011;63666;52.284;20.890;2022-12-29T14:42:43;6.00;;;3.70;;
41141;SDS011;63666;52.284;20.890;2022-12-29T14:45:26;5.80;;;3.70;;
41141;SDS011;63666;52.284;20.890;2022-12-29T14:48:25;5.40;;;3.30;;
41141;SDS011;63666;52.284;20.890;2022-12-29T14:50:59;5.30;;;3.20;;
41141;SDS011;63666;52.284;20.890;2022-12-29T14:53:49;6.10;;;3.60;;
41141;SDS011;63666;52.284;20.890;2022-12-29T14:56:24;5.60;;;3.40;;
41141;SDS011;63666;52.284;20.890;2022-12-29T14:58:57;5.70;;;3.60;;
41141;SDS011;63666;52.284;20.890;2022-12-29T15:01:39;5.90;;;3.80;;
41141;SDS011;63666;52.284;20.890;2022-12-29T15:04:18;6.50;;;3.50;;
41141;SDS011;63666;52.284;20.890;2022-12-29T15:06:51;6.00;;;3.20;;
41141;SDS011;63666;52.284;20.890;2022-12-29T15:09:27;6.00;;;3.40;;
41141;SDS011;63666;52.284;20.890;2022-12-29T15:12:04;5.50;;;3.70;;
41141;SDS011;63666;52.284;20.890;2022-12-29T15:14:52;5.90;;;3.50;;
41141;SDS011;63666;52.284;20.890;2022-12-29T15:17:27;6.10;;;3.40;;
41141;SDS011;63666;52.284;20.890;2022-12-29T15:19:59;6.20;;;3.50;;
41141;SDS011;63666;52.284;20.890;2022-12-29T15:22:44;6.00;;;3.70;;
41141;SDS011;63666;52.284;20.890;2022-12-29T15:25:16;6.20;;;3.60;;
41141;SDS011;63666;52.284;20.890;2022-12-29T15:27:50;6.70;;;3.20;;
41141;SDS011;63666;52.284;20.890;2022-12-29T15:30:21;5.10;;;3.20;;
41141;SDS011;63666;52.284;20.890;2022-12-29T15:32:51;5.80;;;3.50;;
41141;SDS011;63666;52.284;20.890;2022-12-29T15:35:30;5.60;;;3.30;;
41141;SDS011;63666;52.284;20.890;2022-12-29T15:38:13;5.40;;;3.10;;
41141;SDS011;63666;52.284;20.890;2022-12-29T15:40:45;5.40;;;3.50;;
41141;SDS011;63666;52.284;20.890;2022-12-29T15:43:25;4.70;;;3.10;;
41141;SDS011;63666;52.284;20.890;2022-12-29T15:46:04;5.60;;;3.30;;
41141;SDS011;63666;52.284;20.890;2022-12-29T15:48:34;5.70;;;3.80;;
41141;SDS011;63666;52.284;20.890;2022-12-29T15:51:18;6.70;;;3.70;;
41141;SDS011;63666;52.284;20.890;2022-12-29T15:53:51;6.00;;;3.20;;